This is the latest recevied weather packets stored in our database for station/object BMCB-14. If no packets are shown the sender has not sent any weather packets the latest 10 day(s).
| Time | Temp. | Humidity | Pressure | Rain* | Wind** | Luminosity | Snow |
|---|---|---|---|---|---|---|---|
| 1777614646 | 10° C | 40% | 1026.4 hPa | 0 mm | - | 108 W/m² | - |
| 1777609242 | 8.89° C | 40% | 1026.4 hPa | 0 mm | - | 2 W/m² | - |
| 1777593649 | 11.11° C | 35% | 1026.5 hPa | 0 mm | - | 0 W/m² | - |
| 1777592447 | 11.67° C | 34% | 1026.4 hPa | 0 mm | - | 0 W/m² | - |
| 1777590646 | 11.67° C | 33% | 1026.3 hPa | 0 mm | - | 0 W/m² | - |
| 1777589446 | 12.22° C | 33% | 1026.3 hPa | 0 mm | - | 0 W/m² | - |
| 1777588248 | 11.67° C | 33% | 1026.2 hPa | 0 mm | - | 0 W/m² | - |
| 1777586448 | 11.67° C | 34% | 1026.4 hPa | 0 mm | - | 0 W/m² | - |
| 1777579246 | 12.78° C | 32% | 1026.2 hPa | 0 mm | - | 0 W/m² | - |
| 1777575649 | 14.44° C | 27% | 1025.5 hPa | 0 mm | - | 4 W/m² | - |
| 1777567249 | 17.78° C | 21% | 1024.5 hPa | 0 mm | - | 260 W/m² | - |
| 1777566647 | 18.33° C | 22% | 1024.5 hPa | 0 mm | - | 288 W/m² | - |
| 1777566047 | 18.33° C | 23% | 1024.5 hPa | 0 mm | - | 316 W/m² | - |
| 1777563647 | 18.89° C | 22% | 1024.3 hPa | 0 mm | - | 428 W/m² | - |
| 1777554045 | 18.33° C | 27% | 1025 hPa | 0 mm | - | 752 W/m² | - |
| 1777548647 | 16.67° C | 31% | 1026 hPa | 0 mm | - | 806 W/m² | - |
| 1777548046 | 16.67° C | 32% | 1026 hPa | 0 mm | - | 804 W/m² | - |
| 1777546848 | 16.67° C | 32% | 1026.2 hPa | 0 mm | - | 800 W/m² | - |
| 1777542048 | 15° C | 33% | 1026.5 hPa | 0 mm | - | 726 W/m² | - |
| 1777517446 | 7.22° C | 50% | 1027.1 hPa | 0 mm | - | 0 W/m² | - |
| 1777516246 | 7.78° C | 50% | 1027.2 hPa | 0 mm | - | 0 W/m² | - |
| 1777515646 | 7.78° C | 51% | 1027.2 hPa | 0 mm | - | 0 W/m² | - |
| 1777514446 | 7.22° C | 52% | 1027.1 hPa | 0 mm | - | 0 W/m² | - |
| 1777513846 | 7.22° C | 53% | 1027.2 hPa | 0 mm | - | 0 W/m² | - |
| 1777507246 | 7.78° C | 53% | 1027.1 hPa | 0 mm | - | 0 W/m² | - |
* Rain latest hour (hover to see other rain measurements)
** Current wind speed in m/s (hover to see current wind gust speed)